createdAt,value
2023-05-25T00:02:15.982Z,11.50
2023-05-25T00:07:17.014Z,10.00
2023-05-25T00:12:18.096Z,9.80
2023-05-25T00:17:19.254Z,10.30
2023-05-25T00:22:21.393Z,10.90
2023-05-25T00:27:20.548Z,11.30
2023-05-25T00:32:21.642Z,12.00
2023-05-25T00:37:23.678Z,12.90
2023-05-25T00:42:22.735Z,12.80
2023-05-25T00:47:25.806Z,14.00
2023-05-25T00:52:25.828Z,12.60
2023-05-25T00:57:24.860Z,12.90
2023-05-25T01:02:25.931Z,12.20
2023-05-25T01:07:27.023Z,12.60
2023-05-25T01:12:28.035Z,12.00
2023-05-25T01:17:29.185Z,13.20
2023-05-25T01:22:30.269Z,13.50
2023-05-25T01:27:30.309Z,12.90
2023-05-25T01:32:31.599Z,12.20
2023-05-25T01:37:32.636Z,11.10
2023-05-25T01:42:33.718Z,12.10
2023-05-25T01:47:34.870Z,13.00
2023-05-25T01:52:35.912Z,12.00
2023-05-25T01:57:39.026Z,12.50
2023-05-25T02:02:38.189Z,11.50
2023-05-25T02:07:39.238Z,11.80
2023-05-25T02:12:40.293Z,12.10
2023-05-25T02:17:41.437Z,12.10
2023-05-25T02:22:43.457Z,12.90
2023-05-25T02:27:42.472Z,11.40
2023-05-25T02:32:44.578Z,11.50
2023-05-25T02:37:43.656Z,12.40
2023-05-25T02:42:46.706Z,12.10
2023-05-25T02:47:45.899Z,12.40
2023-05-25T02:52:46.961Z,11.90
2023-05-25T02:57:48.073Z,13.00
2023-05-25T03:02:50.173Z,12.80
2023-05-25T03:07:49.291Z,13.30
2023-05-25T03:12:51.337Z,13.80
2023-05-25T03:17:50.517Z,13.40
2023-05-25T03:22:51.610Z,13.40
2023-05-25T03:27:53.628Z,12.80
2023-05-25T03:32:52.803Z,13.30
2023-05-25T03:37:53.798Z,14.00
2023-05-25T03:42:54.886Z,14.60
2023-05-25T03:47:57.006Z,14.20
2023-05-25T03:52:56.213Z,14.30
2023-05-25T03:57:57.263Z,14.80
2023-05-25T04:03:03.409Z,14.00
2023-05-25T04:07:58.496Z,15.50
2023-05-25T04:12:59.616Z,15.00
2023-05-25T04:18:00.734Z,13.00
2023-05-25T04:23:01.809Z,13.70
2023-05-25T04:28:03.901Z,14.80
2023-05-25T04:33:03.211Z,13.40
2023-05-25T04:38:04.312Z,12.00
2023-05-25T04:43:05.397Z,12.50
2023-05-25T04:48:06.504Z,12.20
2023-05-25T04:53:07.516Z,12.00
2023-05-25T04:58:08.616Z,11.70
2023-05-25T05:03:15.840Z,11.90
2023-05-25T05:08:10.945Z,11.20
2023-05-25T05:13:11.988Z,12.00
2023-05-25T05:18:14.046Z,12.00
2023-05-25T05:23:14.092Z,11.10
2023-05-25T05:28:14.129Z,11.30
2023-05-25T05:33:13.425Z,11.90
2023-05-25T05:38:14.530Z,11.00
2023-05-25T05:43:15.632Z,11.70
2023-05-25T05:48:17.709Z,12.90
2023-05-25T05:53:18.719Z,12.10
2023-05-25T05:58:17.755Z,11.80
2023-05-25T06:03:18.878Z,11.40
2023-05-25T06:08:19.964Z,11.20
2023-05-25T06:13:21.995Z,11.30
2023-05-25T06:18:21.083Z,11.90
2023-05-25T06:23:22.135Z,10.60
2023-05-25T06:28:23.179Z,10.70
2023-05-25T06:33:26.206Z,9.10
2023-05-25T06:38:26.339Z,8.10
2023-05-25T06:43:25.309Z,8.10
2023-05-25T06:48:26.503Z,7.40
2023-05-25T06:53:29.504Z,8.20
2023-05-25T06:58:28.505Z,8.50
2023-05-25T07:03:29.611Z,7.60
2023-05-25T07:08:32.622Z,7.40
2023-05-25T07:13:31.668Z,7.30
2023-05-25T07:18:32.768Z,6.60
2023-05-25T07:23:33.762Z,7.30
2023-05-25T07:28:33.791Z,6.00
2023-05-25T07:33:34.818Z,6.50
2023-05-25T07:38:35.863Z,5.70
2023-05-25T07:43:38.888Z,6.80
2023-05-25T07:48:37.924Z,6.00
2023-05-25T07:53:39.969Z,6.10
2023-05-25T07:58:39.142Z,5.80
2023-05-25T08:08:41.211Z,6.30
2023-05-25T08:13:42.250Z,6.10
2023-05-25T08:18:43.377Z,5.50
2023-05-25T08:23:44.408Z,6.00
2023-05-25T08:28:45.440Z,6.00
2023-05-25T08:33:47.483Z,5.70
2023-05-25T08:38:47.534Z,6.00
2023-05-25T08:43:48.564Z,6.10
2023-05-25T08:48:47.738Z,4.70
2023-05-25T08:53:48.818Z,5.70
2023-05-25T08:58:49.839Z,5.40
2023-05-25T09:03:51.969Z,5.20
2023-05-25T09:08:55.080Z,5.40
2023-05-25T09:13:52.152Z,5.50
2023-05-25T09:18:53.305Z,5.50
2023-05-25T09:23:54.460Z,4.90
2023-05-25T09:28:55.927Z,4.60
2023-05-25T09:33:56.940Z,4.60
2023-05-25T09:38:58.313Z,5.40
2023-05-25T09:44:09.547Z,4.20
2023-05-25T09:48:57.596Z,4.60
2023-05-25T09:53:58.638Z,3.90
2023-05-25T09:59:00.691Z,3.50
2023-05-25T10:04:10.291Z,3.40
2023-05-25T10:09:00.648Z,3.70
2023-05-25T10:14:00.701Z,2.90
2023-05-25T10:19:00.752Z,2.60
2023-05-25T10:24:00.049Z,3.00
2023-05-25T10:29:01.105Z,3.80
2023-05-25T10:34:03.176Z,3.90
2023-05-25T10:39:03.346Z,4.50
2023-05-25T10:44:02.316Z,4.00
2023-05-25T10:49:03.327Z,4.70
2023-05-25T10:54:04.358Z,4.50
2023-05-25T10:59:05.602Z,4.00
2023-05-25T11:04:07.815Z,4.20
2023-05-25T11:09:06.859Z,3.40
2023-05-25T11:14:07.889Z,3.90
2023-05-25T11:19:08.925Z,3.80
2023-05-25T11:24:09.970Z,4.20
2023-05-25T11:29:10.987Z,3.70
2023-05-25T11:34:12.152Z,4.40
2023-05-25T11:39:20.937Z,4.40
2023-05-25T11:44:13.048Z,4.70
2023-05-25T11:49:14.081Z,4.00
2023-05-25T11:54:17.144Z,4.30
2023-05-25T11:59:17.177Z,4.60
2023-05-25T12:04:16.341Z,4.60
2023-05-25T12:09:17.421Z,4.30
2023-05-25T12:14:18.492Z,3.80
2023-05-25T12:19:20.534Z,4.40
2023-05-25T12:24:20.580Z,5.30
2023-05-25T12:29:19.624Z,4.90
2023-05-25T12:34:20.843Z,4.70
2023-05-25T12:39:24.476Z,5.20
2023-05-25T12:44:23.091Z,5.30
2023-05-25T12:49:23.088Z,4.90
2023-05-25T12:54:23.116Z,5.80
2023-05-25T12:59:22.220Z,5.50
2023-05-25T13:04:27.143Z,6.30
2023-05-25T13:09:29.599Z,6.10
2023-05-25T13:14:26.668Z,6.00
2023-05-25T13:19:25.765Z,5.90
2023-05-25T13:24:26.799Z,6.10
2023-05-25T13:29:28.845Z,6.10
2023-05-25T13:34:28.888Z,6.90
2023-05-25T13:39:28.940Z,6.20
2023-05-25T13:44:29.003Z,6.50
2023-05-25T13:49:28.052Z,6.30
2023-05-25T13:54:30.113Z,7.40
2023-05-25T13:59:29.152Z,6.20
2023-05-25T14:04:31.218Z,7.00
2023-05-25T14:09:30.288Z,8.00
2023-05-25T14:14:33.049Z,7.40
2023-05-25T14:19:33.192Z,8.90
2023-05-25T14:24:33.215Z,8.00
2023-05-25T14:29:32.261Z,8.80
2023-05-25T14:34:33.325Z,9.20
2023-05-25T14:39:35.357Z,8.50
2023-05-25T14:44:34.422Z,10.50
2023-05-25T14:49:35.457Z,9.70
2023-05-25T14:54:36.491Z,9.40
2023-05-25T14:59:38.532Z,8.90
2023-05-25T15:04:37.597Z,9.10
2023-05-25T15:09:38.638Z,9.80
2023-05-25T15:14:39.688Z,8.70
2023-05-25T15:19:41.744Z,10.10
2023-05-25T15:24:40.800Z,9.90
2023-05-25T15:29:41.820Z,10.90
2023-05-25T15:34:42.916Z,9.40
2023-05-25T15:39:43.942Z,10.00
2023-05-25T15:44:45.986Z,9.70
2023-05-25T15:49:45.039Z,9.80
2023-05-25T15:54:47.099Z,11.20
2023-05-25T15:59:46.124Z,8.90
2023-05-25T16:04:48.160Z,10.00
2023-05-25T16:09:47.213Z,9.90
2023-05-25T16:14:49.268Z,10.70
2023-05-25T16:19:48.309Z,10.40
2023-05-25T16:24:48.346Z,10.10
2023-05-25T16:29:50.376Z,10.40
2023-05-25T16:34:50.434Z,10.20
2023-05-25T16:39:51.477Z,10.70
2023-05-25T16:44:49.514Z,9.50
2023-05-25T16:49:50.650Z,9.50
2023-05-25T16:54:51.726Z,9.70
2023-05-25T16:59:54.834Z,8.60
2023-05-25T17:04:53.820Z,9.00
2023-05-25T17:09:55.868Z,9.00
2023-05-25T17:14:54.952Z,8.40
2023-05-25T17:19:56.185Z,8.60
2023-05-25T17:24:57.377Z,8.60
2023-05-25T17:29:58.523Z,8.40
2023-05-25T17:35:01.594Z,7.90
2023-05-25T17:40:00.696Z,8.40
2023-05-25T17:45:02.794Z,8.10
2023-05-25T17:50:01.862Z,7.80
2023-05-25T17:55:04.010Z,7.40
2023-05-25T18:00:03.316Z,8.30
2023-05-25T18:05:04.782Z,7.10
2023-05-25T18:10:04.091Z,7.40
2023-05-25T18:15:06.523Z,7.10
2023-05-25T18:20:05.967Z,7.40
2023-05-25T18:25:08.482Z,7.60
2023-05-25T18:30:08.665Z,6.60
2023-05-25T18:35:08.242Z,6.70
2023-05-25T18:40:08.261Z,7.70
2023-05-25T18:45:07.501Z,6.90
2023-05-25T18:50:10.525Z,7.20
2023-05-25T18:55:09.762Z,7.00
2023-05-25T19:00:10.796Z,7.00
2023-05-25T19:05:12.007Z,7.20
2023-05-25T19:10:14.021Z,6.80
2023-05-25T19:15:13.124Z,7.70
2023-05-25T19:20:15.387Z,7.20
2023-05-25T19:25:14.484Z,5.90
2023-05-25T19:30:16.731Z,5.60
2023-05-25T19:35:16.913Z,6.30
2023-05-25T19:40:16.075Z,6.30
2023-05-25T19:45:18.263Z,4.60
2023-05-25T19:50:18.417Z,5.30
2023-05-25T19:55:17.665Z,5.90
2023-05-25T20:00:26.003Z,6.20
2023-05-25T20:05:19.096Z,5.70
2023-05-25T20:10:20.460Z,6.30
2023-05-25T20:15:22.645Z,5.90
2023-05-25T20:20:21.863Z,5.70
2023-05-25T20:25:22.903Z,5.90
2023-05-25T20:30:23.971Z,6.20
2023-05-25T20:35:26.008Z,6.90
2023-05-25T20:40:26.043Z,6.10
2023-05-25T20:45:26.105Z,6.30
2023-05-25T20:50:26.153Z,6.80
2023-05-25T20:55:25.250Z,6.70
2023-05-25T21:00:27.531Z,7.00
2023-05-25T21:05:27.576Z,6.80
2023-05-25T21:10:27.639Z,6.80
2023-05-25T21:15:27.690Z,6.30
2023-05-25T21:20:28.776Z,7.40
2023-05-25T21:25:27.954Z,6.70
2023-05-25T21:30:29.139Z,6.80
2023-05-25T21:35:31.163Z,7.90
2023-05-25T21:40:30.212Z,7.40
2023-05-25T21:45:31.412Z,7.50
2023-05-25T21:50:32.455Z,7.20
2023-05-25T21:55:33.645Z,7.80
2023-05-25T22:00:35.538Z,8.00
2023-05-25T22:05:39.825Z,7.90
2023-05-25T22:10:36.038Z,8.80
2023-05-25T22:15:35.045Z,8.60
2023-05-25T22:20:36.346Z,8.90
2023-05-25T22:25:39.348Z,10.20
2023-05-25T22:30:39.493Z,9.80
2023-05-25T22:35:39.524Z,9.50
2023-05-25T22:40:39.599Z,10.50
2023-05-25T22:45:38.737Z,9.40
2023-05-25T22:50:39.752Z,10.00
2023-05-25T22:55:41.893Z,9.90
2023-05-25T23:00:40.900Z,10.20
2023-05-25T23:05:41.959Z,9.90
2023-05-25T23:10:43.001Z,9.40
2023-05-25T23:15:44.547Z,9.50
2023-05-25T23:20:43.879Z,9.90
2023-05-25T23:25:46.155Z,10.30
2023-05-25T23:30:45.264Z,11.60
2023-05-25T23:35:47.447Z,10.80
2023-05-25T23:40:47.518Z,10.20
2023-05-25T23:45:46.829Z,11.80
2023-05-25T23:50:47.097Z,11.50
2023-05-25T23:55:46.494Z,10.90
